Time;durP1;ratioP1;P1;durP2;ratioP2;P2;SDS_P1;SDS_P2;PMS_P1;PMS_P2;Temp;Humidity;BMP_temperature;BMP_pressure;BME280_temperature;BME280_humidity;BME280_pressure;Samples;Min_cycle;Max_cycle;Signal;HPM_P1;HPM_P2
2022/08/09 00:01:48;;;;;;;3.55;2.70;;;;;;;;;;10090247;23;20098;-84
2022/08/09 00:05:52;;;;;;;5.07;3.17;;;;;;;;;;10089993;23;20023;-84
2022/08/09 00:09:54;;;;;;;5.07;3.20;;;;;;;;;;10090599;23;20035;-84
2022/08/09 00:13:57;;;;;;;5.03;3.38;;;;;;;;;;10090508;23;20400;-83
2022/08/09 00:17:59;;;;;;;4.30;3.10;;;;;;;;;;10091431;23;20022;-83
2022/08/09 00:22:04;;;;;;;6.22;3.40;;;;;;;;;;10092858;23;20022;-84
2022/08/09 00:26:07;;;;;;;5.07;3.42;;;;;;;;;;10093225;23;20050;-84
2022/08/09 00:30:10;;;;;;;6.47;3.30;;;;;;;;;;10093086;23;20439;-83
2022/08/09 00:34:13;;;;;;;6.68;3.67;;;;;;;;;;10092845;23;20026;-84
2022/08/09 00:38:17;;;;;;;6.93;4.00;;;;;;;;;;10092272;23;20033;-84
2022/08/09 00:42:19;;;;;;;7.43;3.50;;;;;;;;;;10093308;23;20440;-84
2022/08/09 00:46:22;;;;;;;5.72;3.33;;;;;;;;;;10092841;23;20018;-84
2022/08/09 00:50:25;;;;;;;6.13;3.60;;;;;;;;;;10092788;23;20022;-83
2022/08/09 00:54:29;;;;;;;6.88;3.45;;;;;;;;;;10091860;23;20022;-83
2022/08/09 00:58:34;;;;;;;5.28;3.60;;;;;;;;;;10093053;23;20018;-83
2022/08/09 01:02:40;;;;;;;6.55;3.63;;;;;;;;;;10107462;23;20025;-83
2022/08/09 01:06:48;;;;;;;5.07;3.05;;;;;;;;;;10092840;23;20093;-83
2022/08/09 01:11:03;;;;;;;6.78;3.60;;;;;;;;;;10093037;23;20451;-83
2022/08/09 01:15:08;;;;;;;4.38;3.17;;;;;;;;;;10089759;23;20097;-84
2022/08/09 01:19:23;;;;;;;5.35;3.03;;;;;;;;;;10093838;23;20018;-84
2022/08/09 01:23:40;;;;;;;5.22;2.97;;;;;;;;;;10109789;23;20022;-84
2022/08/09 01:27:49;;;;;;;4.82;3.25;;;;;;;;;;10109729;23;20022;-83
2022/08/09 01:31:52;;;;;;;5.70;3.20;;;;;;;;;;10092961;23;20034;-83
2022/08/09 01:36:02;;;;;;;4.97;3.40;;;;;;;;;;10091238;23;20025;-83
2022/08/09 01:40:07;;;;;;;5.72;3.30;;;;;;;;;;10108509;23;20089;-83
2022/08/09 01:44:13;;;;;;;6.05;3.78;;;;;;;;;;10108403;23;20022;-83
2022/08/09 01:48:19;;;;;;;5.60;3.67;;;;;;;;;;10091990;23;20022;-83
2022/08/09 01:52:23;;;;;;;5.97;3.63;;;;;;;;;;10108700;23;20372;-83
2022/08/09 01:56:29;;;;;;;4.68;2.90;;;;;;;;;;10092677;23;20022;-83
2022/08/09 02:00:34;;;;;;;7.03;3.33;;;;;;;;;;10107289;23;20022;-84
2022/08/09 02:04:38;;;;;;;6.07;3.40;;;;;;;;;;10092599;23;20023;-83
2022/08/09 02:08:45;;;;;;;5.22;3.08;;;;;;;;;;10092676;23;20026;-83
2022/08/09 02:12:49;;;;;;;5.22;3.38;;;;;;;;;;10106793;23;20026;-84
2022/08/09 02:16:55;;;;;;;4.47;2.80;;;;;;;;;;10090710;23;20037;-83
2022/08/09 02:21:02;;;;;;;5.53;2.80;;;;;;;;;;10092646;23;20076;-84
2022/08/09 02:25:11;;;;;;;4.93;2.70;;;;;;;;;;10107751;23;20141;-84
2022/08/09 02:29:18;;;;;;;5.85;3.90;;;;;;;;;;10090866;23;20092;-84
2022/08/09 02:33:26;;;;;;;8.15;5.10;;;;;;;;;;10091177;23;20085;-84
2022/08/09 02:37:31;;;;;;;6.63;4.20;;;;;;;;;;10106590;23;20101;-83
2022/08/09 02:41:43;;;;;;;10.40;6.32;;;;;;;;;;10103985;23;20074;-84
2022/08/09 02:45:46;;;;;;;;;;;;;;;;;;10091170;23;20069;-82
2022/08/09 02:49:56;;;;;;;10.20;6.78;;;;;;;;;;10089658;23;20109;-83
2022/08/09 02:54:00;;;;;;;10.27;5.30;;;;;;;;;;10090790;23;20022;-83
2022/08/09 02:58:05;;;;;;;8.18;4.40;;;;;;;;;;10088302;23;20098;-84
2022/08/09 03:02:12;;;;;;;8.38;4.60;;;;;;;;;;10105919;23;20131;-84
2022/08/09 03:06:18;;;;;;;6.47;3.97;;;;;;;;;;10106652;23;20049;-84
2022/08/09 03:10:22;;;;;;;5.95;3.42;;;;;;;;;;10106875;23;20025;-84
2022/08/09 03:14:25;;;;;;;5.43;3.20;;;;;;;;;;10090572;23;20033;-84
2022/08/09 03:18:28;;;;;;;6.03;3.45;;;;;;;;;;10089744;23;20077;-83
2022/08/09 03:22:36;;;;;;;4.72;2.85;;;;;;;;;;10091599;23;20362;-83
2022/08/09 03:26:39;;;;;;;10.73;3.28;;;;;;;;;;10086710;23;20018;-86
2022/08/09 03:30:43;;;;;;;5.55;3.42;;;;;;;;;;10088209;23;20026;-85
2022/08/09 03:34:46;;;;;;;5.90;3.40;;;;;;;;;;10090240;23;20022;-84
2022/08/09 03:39:19;;;;;;;7.25;3.65;;;;;;;;;;10088571;23;20451;-84
2022/08/09 03:44:04;;;;;;;4.90;3.50;;;;;;;;;;10088319;23;20093;-84
2022/08/09 03:53:46;;;;;;;4.68;3.05;;;;;;;;;;10109501;23;20077;-88
2022/08/09 03:58:22;;;;;;;5.43;3.47;;;;;;;;;;10109710;23;20152;-82
2022/08/09 04:02:49;;;;;;;5.00;3.25;;;;;;;;;;10109487;23;20053;-83
2022/08/09 04:07:11;;;;;;;5.72;3.42;;;;;;;;;;10109583;23;20026;-83
2022/08/09 04:11:56;;;;;;;5.35;2.97;;;;;;;;;;10093307;23;20033;-84
2022/08/09 04:16:15;;;;;;;7.00;3.40;;;;;;;;;;10072995;23;20049;-84
2022/08/09 04:20:56;;;;;;;8.13;3.40;;;;;;;;;;10094098;23;20354;-83
2022/08/09 04:25:31;;;;;;;5.88;3.47;;;;;;;;;;10106883;23;20019;-86
2022/08/09 04:30:12;;;;;;;4.47;3.33;;;;;;;;;;10091102;23;20026;-84
2022/08/09 04:34:56;;;;;;;5.25;2.90;;;;;;;;;;10108833;23;20077;-84
2022/08/09 04:39:40;;;;;;;6.85;3.20;;;;;;;;;;10107262;23;20025;-84
2022/08/09 04:44:10;;;;;;;5.30;3.22;;;;;;;;;;10090325;23;20066;-85
2022/08/09 04:48:57;;;;;;;6.03;3.90;;;;;;;;;;10091830;23;20018;-85
2022/08/09 05:06:59;;;;;;;6.00;3.42;;;;;;;;;;9942513;23;20035;-84
2022/08/09 05:11:31;;;;;;;7.85;3.50;;;;;;;;;;10080200;23;20359;-81
2022/08/09 05:16:12;;;;;;;5.63;3.90;;;;;;;;;;10092074;23;20045;-82
2022/08/09 05:30:34;;;;;;;6.75;3.53;;;;;;;;;;10092352;23;20027;-81
2022/08/09 05:34:56;;;;;;;5.88;3.20;;;;;;;;;;10106723;23;20068;-81
2022/08/09 05:49:59;;;;;;;6.38;3.13;;;;;;;;;;10084884;23;20053;-83
2022/08/09 05:54:03;;;;;;;7.72;3.55;;;;;;;;;;10091429;23;20409;-84
2022/08/09 05:58:08;;;;;;;4.32;2.72;;;;;;;;;;10091674;23;20029;-81
2022/08/09 06:02:15;;;;;;;5.47;3.13;;;;;;;;;;10088334;23;20029;-82
2022/08/09 06:06:23;;;;;;;5.32;3.00;;;;;;;;;;10107924;23;20046;-84
2022/08/09 06:10:36;;;;;;;5.93;2.30;;;;;;;;;;10107157;23;20026;-81
2022/08/09 06:14:39;;;;;;;5.93;2.08;;;;;;;;;;10106690;23;20018;-81
2022/08/09 06:18:42;;;;;;;5.75;2.00;;;;;;;;;;10090084;23;20033;-83
2022/08/09 06:22:50;;;;;;;7.32;2.00;;;;;;;;;;10091637;23;20045;-82
2022/08/09 06:26:53;;;;;;;6.30;2.15;;;;;;;;;;10108048;23;20062;-82
2022/08/09 06:30:59;;;;;;;3.22;1.67;;;;;;;;;;10091728;23;20026;-82
2022/08/09 06:35:03;;;;;;;4.70;2.40;;;;;;;;;;10107032;23;20388;-84
2022/08/09 06:39:10;;;;;;;4.38;2.10;;;;;;;;;;10092242;23;20053;-82
2022/08/09 06:43:13;;;;;;;5.40;2.38;;;;;;;;;;10106494;23;20025;-86
2022/08/09 06:47:16;;;;;;;4.97;2.28;;;;;;;;;;10091643;23;20023;-87
2022/08/09 06:51:20;;;;;;;3.25;2.00;;;;;;;;;;10091436;23;20028;-87
2022/08/09 06:55:30;;;;;;;2.95;1.85;;;;;;;;;;10091433;23;20022;-82
2022/08/09 06:59:34;;;;;;;4.65;2.22;;;;;;;;;;10107156;23;20347;-84
2022/08/09 07:03:37;;;;;;;3.85;2.00;;;;;;;;;;10091560;23;20046;-80
2022/08/09 07:08:10;;;;;;;4.18;2.63;;;;;;;;;;10091204;23;20042;-81
2022/08/09 07:12:17;;;;;;;3.72;2.10;;;;;;;;;;10105194;23;20032;-82
2022/08/09 07:16:23;;;;;;;4.13;1.98;;;;;;;;;;10100573;23;20110;-82
2022/08/09 07:20:29;;;;;;;3.65;2.40;;;;;;;;;;10101127;23;20026;-81
2022/08/09 07:24:35;;;;;;;4.05;2.28;;;;;;;;;;10085354;23;20042;-82
2022/08/09 07:28:48;;;;;;;6.03;2.33;;;;;;;;;;10085044;23;20070;-81
2022/08/09 07:33:00;;;;;;;4.97;2.30;;;;;;;;;;10087946;23;20092;-82
2022/08/09 07:37:11;;;;;;;5.80;2.20;;;;;;;;;;10101427;23;20394;-82
2022/08/09 07:41:16;;;;;;;2.80;1.80;;;;;;;;;;10100904;23;20059;-82
2022/08/09 07:45:26;;;;;;;2.95;1.80;;;;;;;;;;10085525;23;20026;-82
2022/08/09 07:49:31;;;;;;;4.75;1.60;;;;;;;;;;10101287;23;20018;-81
2022/08/09 07:53:37;;;;;;;3.58;1.83;;;;;;;;;;10085014;23;20030;-81
2022/08/09 07:57:53;;;;;;;3.10;1.17;;;;;;;;;;10085244;23;20411;-82
2022/08/09 08:02:00;;;;;;;3.90;1.70;;;;;;;;;;10084037;23;20113;-83
2022/08/09 08:06:07;;;;;;;5.20;2.50;;;;;;;;;;10085295;23;20438;-82
2022/08/09 08:10:11;;;;;;;3.33;1.85;;;;;;;;;;10083670;23;20056;-84
2022/08/09 08:14:19;;;;;;;2.53;1.48;;;;;;;;;;10085327;23;20014;-81
2022/08/09 08:18:24;;;;;;;7.07;1.67;;;;;;;;;;10100638;23;20018;-83
2022/08/09 08:22:32;;;;;;;3.92;1.20;;;;;;;;;;10101002;23;20411;-82
2022/08/09 08:26:46;;;;;;;2.40;1.40;;;;;;;;;;10098077;23;20404;-83
2022/08/09 08:30:59;;;;;;;5.18;1.52;;;;;;;;;;10093710;23;20470;-82
2022/08/09 08:35:07;;;;;;;4.03;1.25;;;;;;;;;;10099444;23;20101;-83
2022/08/09 08:39:14;;;;;;;2.42;1.35;;;;;;;;;;10100584;23;20018;-82
2022/08/09 08:43:21;;;;;;;4.97;1.20;;;;;;;;;;10102041;23;20018;-82
2022/08/09 08:47:44;;;;;;;2.05;1.45;;;;;;;;;;10101344;23;20026;-82
2022/08/09 08:52:40;;;;;;;1.20;1.10;;;;;;;;;;10086750;23;20115;-84
2022/08/09 08:57:06;;;;;;;4.18;1.48;;;;;;;;;;10102966;23;20395;-83
2022/08/09 09:01:14;;;;;;;4.70;2.38;;;;;;;;;;10102618;23;20023;-82
2022/08/09 09:05:22;;;;;;;4.40;1.70;;;;;;;;;;10085161;23;20038;-82
2022/08/09 09:09:26;;;;;;;3.10;1.10;;;;;;;;;;10101979;23;20026;-82
2022/08/09 09:13:37;;;;;;;5.03;1.58;;;;;;;;;;10101120;23;20022;-81
2022/08/09 09:17:41;;;;;;;4.20;1.70;;;;;;;;;;10100427;23;20438;-83
2022/08/09 09:22:04;;;;;;;2.65;1.33;;;;;;;;;;10103431;23;20046;-81
2022/08/09 09:26:08;;;;;;;2.13;1.30;;;;;;;;;;10101802;23;20101;-82
2022/08/09 09:30:14;;;;;;;4.07;1.13;;;;;;;;;;10085060;23;20469;-81
2022/08/09 09:34:18;;;;;;;3.67;1.50;;;;;;;;;;10086027;23;20339;-82
2022/08/09 09:38:23;;;;;;;1.88;1.13;;;;;;;;;;10081724;23;20057;-83
2022/08/09 09:42:32;;;;;;;4.05;1.50;;;;;;;;;;10085276;23;20335;-83
2022/08/09 09:46:41;;;;;;;2.85;1.30;;;;;;;;;;10100083;23;20461;-81
2022/08/09 09:50:46;;;;;;;4.28;1.80;;;;;;;;;;10101845;23;20105;-82
2022/08/09 09:54:50;;;;;;;5.88;1.80;;;;;;;;;;10085861;23;20362;-82
2022/08/09 09:59:00;;;;;;;3.10;1.70;;;;;;;;;;10084847;23;20129;-82
2022/08/09 10:03:05;;;;;;;6.32;1.92;;;;;;;;;;10102053;23;20018;-82
2022/08/09 10:07:32;;;;;;;6.07;2.00;;;;;;;;;;10080266;23;20057;-81
2022/08/09 10:11:48;;;;;;;4.55;1.60;;;;;;;;;;10057301;23;20030;-81
2022/08/09 10:15:56;;;;;;;4.07;1.77;;;;;;;;;;10082453;23;20054;-83
2022/08/09 10:20:07;;;;;;;;;;;;;;;;;;10078372;23;20022;-80
2022/08/09 10:24:10;;;;;;;4.32;1.60;;;;;;;;;;10101363;23;20353;-85
2022/08/09 10:28:17;;;;;;;3.60;1.50;;;;;;;;;;10085841;23;20022;-81
2022/08/09 10:32:22;;;;;;;2.53;1.52;;;;;;;;;;10090862;23;20911;-83
2022/08/09 10:36:29;;;;;;;4.60;1.70;;;;;;;;;;10099237;23;20019;-83
2022/08/09 10:40:33;;;;;;;4.00;1.90;;;;;;;;;;10100402;23;20019;-81
2022/08/09 10:44:38;;;;;;;4.15;1.65;;;;;;;;;;10072587;23;20022;-82
2022/08/09 10:48:47;;;;;;;3.33;1.63;;;;;;;;;;10084440;23;20033;-83
2022/08/09 10:53:05;;;;;;;2.92;1.67;;;;;;;;;;10085061;23;20037;-82
2022/08/09 11:09:53;;;;;;;2.73;1.67;;;;;;;;;;8517952;27;20453;-83
2022/08/09 11:14:34;;;;;;;4.40;1.80;;;;;;;;;;8492557;27;20047;-83
2022/08/09 11:18:46;;;;;;;6.13;1.90;;;;;;;;;;8488550;27;20464;-83
2022/08/09 11:23:01;;;;;;;3.17;1.60;;;;;;;;;;8508277;27;20051;-79
2022/08/09 11:27:29;;;;;;;5.03;1.80;;;;;;;;;;8488421;27;20146;-83
2022/08/09 11:31:48;;;;;;;2.45;1.63;;;;;;;;;;8482095;27;20044;-83
2022/08/09 11:35:58;;;;;;;7.45;1.90;;;;;;;;;;8495058;27;20039;-84
2022/08/09 11:40:03;;;;;;;3.55;1.92;;;;;;;;;;8493554;27;20039;-84
2022/08/09 11:44:10;;;;;;;3.33;1.70;;;;;;;;;;8490455;27;20463;-84
2022/08/09 11:48:23;;;;;;;4.88;1.90;;;;;;;;;;8490222;27;20095;-81
2022/08/09 11:52:27;;;;;;;3.60;2.10;;;;;;;;;;8479259;27;20043;-82
2022/08/09 11:56:31;;;;;;;4.00;1.80;;;;;;;;;;8494097;27;20118;-80
2022/08/09 12:00:49;;;;;;;3.22;1.80;;;;;;;;;;8485649;27;20043;-81
2022/08/09 12:04:53;;;;;;;4.40;1.85;;;;;;;;;;8486132;27;20406;-82
2022/08/09 12:08:59;;;;;;;4.20;1.90;;;;;;;;;;8471490;27;20047;-84
2022/08/09 12:13:05;;;;;;;3.67;1.70;;;;;;;;;;8466236;27;20082;-83
2022/08/09 12:17:13;;;;;;;3.40;1.60;;;;;;;;;;8464910;27;20118;-84
2022/08/09 12:21:28;;;;;;;3.75;1.70;;;;;;;;;;8456470;27;20383;-83
2022/08/09 12:25:32;;;;;;;5.72;1.70;;;;;;;;;;8466000;27;20391;-83
2022/08/09 12:29:35;;;;;;;3.97;1.70;;;;;;;;;;8467031;27;20448;-83
2022/08/09 12:33:41;;;;;;;4.00;1.63;;;;;;;;;;8472893;27;20048;-83
2022/08/09 12:37:46;;;;;;;1.83;1.48;;;;;;;;;;8474347;27;20220;-84
2022/08/09 12:41:51;;;;;;;3.22;1.58;;;;;;;;;;8464014;27;20079;-81
2022/08/09 12:45:56;;;;;;;4.43;1.55;;;;;;;;;;8463051;27;20044;-85
2022/08/09 12:50:20;;;;;;;2.22;1.52;;;;;;;;;;8464030;27;20043;-84
2022/08/09 12:54:25;;;;;;;4.60;1.80;;;;;;;;;;8462498;27;20119;-84
2022/08/09 12:58:28;;;;;;;5.07;1.75;;;;;;;;;;8456733;27;20048;-83
2022/08/09 13:02:51;;;;;;;5.88;1.60;;;;;;;;;;8459796;27;20048;-83
2022/08/09 13:06:56;;;;;;;4.15;1.80;;;;;;;;;;8457331;27;20699;-82
2022/08/09 13:11:13;;;;;;;5.38;1.88;;;;;;;;;;8455310;27;20044;-84
2022/08/09 13:15:33;;;;;;;5.90;1.90;;;;;;;;;;8459718;27;20149;-81
2022/08/09 13:19:38;;;;;;;3.28;1.90;;;;;;;;;;8461218;27;20047;-84
2022/08/09 13:24:13;;;;;;;2.22;1.70;;;;;;;;;;8451353;27;20069;-82
2022/08/09 13:28:20;;;;;;;3.65;1.90;;;;;;;;;;8445907;27;20103;-83
2022/08/09 13:32:43;;;;;;;4.05;2.13;;;;;;;;;;8454031;28;20046;-81
2022/08/09 13:36:49;;;;;;;3.53;1.77;;;;;;;;;;8455666;27;20036;-84
2022/08/09 13:41:08;;;;;;;6.72;2.00;;;;;;;;;;8467100;27;20082;-82
2022/08/09 13:45:16;;;;;;;5.00;1.92;;;;;;;;;;8451274;27;20753;-84
2022/08/09 13:49:20;;;;;;;5.05;1.92;;;;;;;;;;8452862;27;20052;-84
2022/08/09 13:53:23;;;;;;;4.20;1.98;;;;;;;;;;8449673;28;20043;-85
2022/08/09 13:57:40;;;;;;;5.35;1.90;;;;;;;;;;8453986;27;20120;-82
2022/08/09 14:02:09;;;;;;;3.08;2.03;;;;;;;;;;8451897;27;20084;-81
2022/08/09 14:06:18;;;;;;;4.70;2.20;;;;;;;;;;8457273;27;20062;-81
2022/08/09 14:10:22;;;;;;;3.53;2.17;;;;;;;;;;8486760;27;20062;-80
2022/08/09 14:14:27;;;;;;;2.60;1.80;;;;;;;;;;8490096;27;20448;-80
2022/08/09 14:18:32;;;;;;;6.35;2.40;;;;;;;;;;8487618;27;20383;-80
2022/08/09 14:22:35;;;;;;;5.07;2.15;;;;;;;;;;8482750;27;20410;-80
2022/08/09 14:26:40;;;;;;;5.63;2.30;;;;;;;;;;8485505;27;20047;-80
2022/08/09 14:30:48;;;;;;;3.35;1.90;;;;;;;;;;8490216;27;20494;-81
2022/08/09 14:34:51;;;;;;;4.25;2.00;;;;;;;;;;8477957;27;20046;-79
2022/08/09 14:38:54;;;;;;;6.47;2.10;;;;;;;;;;8495569;27;20428;-80
2022/08/09 14:42:58;;;;;;;3.35;1.90;;;;;;;;;;8475094;27;20131;-82
2022/08/09 14:47:03;;;;;;;2.65;2.25;;;;;;;;;;8483438;27;20043;-81
2022/08/09 14:51:07;;;;;;;8.43;2.30;;;;;;;;;;8488859;27;20118;-83
2022/08/09 14:55:11;;;;;;;4.18;2.00;;;;;;;;;;8488642;27;20039;-81
2022/08/09 14:59:14;;;;;;;12.23;2.35;;;;;;;;;;8493943;27;20086;-81
2022/08/09 15:03:19;;;;;;;6.40;2.38;;;;;;;;;;8480895;28;20048;-81
2022/08/09 15:07:22;;;;;;;5.43;2.20;;;;;;;;;;8472699;28;20479;-81
2022/08/09 15:11:25;;;;;;;4.75;2.30;;;;;;;;;;8495600;28;20114;-81
2022/08/09 15:15:29;;;;;;;3.50;2.33;;;;;;;;;;8483781;27;20043;-81
2022/08/09 15:19:50;;;;;;;7.75;2.60;;;;;;;;;;8456078;28;20050;-80
2022/08/09 15:23:54;;;;;;;6.30;2.40;;;;;;;;;;8441244;28;20054;-81
2022/08/09 15:27:58;;;;;;;10.65;2.25;;;;;;;;;;8446280;28;20067;-82
2022/08/09 15:32:08;;;;;;;5.45;2.25;;;;;;;;;;8448129;28;20044;-82
2022/08/09 15:37:33;;;;;;;2.97;2.03;;;;;;;;;;8458207;28;20043;-82
2022/08/09 15:41:59;;;;;;;3.58;2.13;;;;;;;;;;8459390;28;20043;-84
2022/08/09 15:46:10;;;;;;;4.32;2.97;;;;;;;;;;8483814;27;20043;-84
2022/08/09 15:50:22;;;;;;;6.72;2.70;;;;;;;;;;8492288;27;20058;-84
2022/08/09 15:54:36;;;;;;;4.90;2.60;;;;;;;;;;8496681;27;20122;-85
2022/08/09 15:58:51;;;;;;;6.20;2.40;;;;;;;;;;8481967;27;20134;-84
2022/08/09 16:03:02;;;;;;;6.77;2.70;;;;;;;;;;8494020;27;20053;-84
2022/08/09 16:07:11;;;;;;;4.05;2.22;;;;;;;;;;8476198;27;20060;-81
2022/08/09 16:11:30;;;;;;;5.53;2.50;;;;;;;;;;8484032;27;20114;-81
2022/08/09 16:15:49;;;;;;;3.47;2.30;;;;;;;;;;8461759;27;20040;-84
2022/08/09 16:20:01;;;;;;;4.28;2.33;;;;;;;;;;8462312;27;20468;-85
2022/08/09 16:24:15;;;;;;;5.65;2.50;;;;;;;;;;8462014;27;20055;-84
2022/08/09 16:28:36;;;;;;;5.90;2.58;;;;;;;;;;8450044;27;20455;-84
2022/08/09 16:37:10;;;;;;;6.72;2.70;;;;;;;;;;8460018;27;20078;-81
2022/08/09 16:41:13;;;;;;;4.97;2.70;;;;;;;;;;8458138;27;20043;-81
2022/08/09 16:45:20;;;;;;;8.40;3.35;;;;;;;;;;8459912;27;20048;-81
2022/08/09 16:49:23;;;;;;;7.25;3.08;;;;;;;;;;8459332;27;20471;-84
2022/08/09 16:53:27;;;;;;;6.95;3.38;;;;;;;;;;8461408;27;20039;-83
2022/08/09 16:57:31;;;;;;;4.68;2.42;;;;;;;;;;8460504;27;20097;-80
2022/08/09 17:01:39;;;;;;;4.15;3.08;;;;;;;;;;8463270;27;20490;-82
2022/08/09 17:05:43;;;;;;;5.00;3.50;;;;;;;;;;8444325;27;20403;-82
2022/08/09 17:09:46;;;;;;;8.55;4.97;;;;;;;;;;8479169;27;20075;-83
2022/08/09 17:13:51;;;;;;;9.93;8.00;;;;;;;;;;8465870;27;20093;-82
2022/08/09 17:17:58;;;;;;;9.88;7.15;;;;;;;;;;8458721;27;20043;-84
2022/08/09 17:22:01;;;;;;;10.52;6.47;;;;;;;;;;8461649;27;20047;-82
2022/08/09 17:26:04;;;;;;;8.32;4.68;;;;;;;;;;8460876;27;20716;-81
2022/08/09 17:30:10;;;;;;;7.00;4.80;;;;;;;;;;8464249;27;20568;-85
2022/08/09 17:34:16;;;;;;;7.50;5.03;;;;;;;;;;8461142;28;20039;-82
2022/08/09 17:38:20;;;;;;;6.18;3.83;;;;;;;;;;8458563;28;20039;-82
2022/08/09 17:42:24;;;;;;;4.72;3.08;;;;;;;;;;8458680;27;20051;-82
2022/08/09 17:46:28;;;;;;;6.38;3.70;;;;;;;;;;8469827;27;20047;-85
2022/08/09 17:50:33;;;;;;;4.60;3.45;;;;;;;;;;8455372;27;20035;-85
2022/08/09 17:54:36;;;;;;;6.28;3.78;;;;;;;;;;8462662;27;20051;-81
2022/08/09 17:58:40;;;;;;;6.82;3.90;;;;;;;;;;8456602;27;20058;-82
2022/08/09 18:02:44;;;;;;;4.85;3.40;;;;;;;;;;8458026;27;20479;-85
2022/08/09 18:06:49;;;;;;;4.57;3.00;;;;;;;;;;8457224;27;20418;-82
2022/08/09 18:10:55;;;;;;;8.45;3.60;;;;;;;;;;8450817;27;20032;-81
2022/08/09 18:15:00;;;;;;;6.60;3.40;;;;;;;;;;8469467;27;20096;-81
2022/08/09 18:24:56;;;;;;;4.82;3.22;;;;;;;;;;8455954;27;20126;-82
2022/08/09 18:30:04;;;;;;;4.57;3.00;;;;;;;;;;8472251;27;20043;-83
2022/08/09 18:45:47;;;;;;;7.13;3.58;;;;;;;;;;8459845;27;20062;-82
2022/08/09 18:50:30;;;;;;;6.63;3.42;;;;;;;;;;8448698;27;20130;-81
2022/08/09 18:55:16;;;;;;;6.07;3.33;;;;;;;;;;8467699;27;20528;-88
2022/08/09 19:04:12;;;;;;;;;;;;;;;;;;8478734;28;20422;-82
2022/08/09 19:13:53;;;;;;;4.18;2.95;;;;;;;;;;8444999;28;20052;-83
2022/08/09 19:17:57;;;;;;;4.65;3.45;;;;;;;;;;8458889;28;20047;-82
2022/08/09 19:26:14;;;;;;;6.23;3.57;;;;;;;;;;8451439;27;20039;-81
2022/08/09 19:30:55;;;;;;;5.93;3.92;;;;;;;;;;8452550;27;20040;-82
2022/08/09 19:35:25;;;;;;;4.70;3.50;;;;;;;;;;8479308;27;20108;-82
2022/08/09 19:39:30;;;;;;;3.95;2.72;;;;;;;;;;8472346;27;20089;-83
2022/08/09 19:43:45;;;;;;;4.75;3.03;;;;;;;;;;8452857;27;20043;-81
2022/08/09 19:48:53;;;;;;;4.15;3.03;;;;;;;;;;8469476;27;20064;-81
2022/08/09 19:53:03;;;;;;;5.20;3.38;;;;;;;;;;8475748;27;20032;-81
2022/08/09 19:57:08;;;;;;;4.93;3.40;;;;;;;;;;8476995;27;20046;-85
2022/08/09 20:01:15;;;;;;;4.82;3.13;;;;;;;;;;8462943;27;20126;-82
2022/08/09 20:11:03;;;;;;;8.23;3.50;;;;;;;;;;8482807;27;20131;-83
2022/08/09 20:15:09;;;;;;;4.60;3.05;;;;;;;;;;8475361;27;20070;-82
2022/08/09 20:19:13;;;;;;;6.95;4.03;;;;;;;;;;8484951;27;20669;-84
2022/08/09 20:23:19;;;;;;;7.07;3.28;;;;;;;;;;8470897;27;20055;-81
2022/08/09 20:27:22;;;;;;;5.78;3.15;;;;;;;;;;8482692;27;20040;-83
2022/08/09 20:31:28;;;;;;;6.85;3.10;;;;;;;;;;8473669;27;20101;-82
2022/08/09 20:35:31;;;;;;;5.45;3.33;;;;;;;;;;8475512;27;20505;-82
2022/08/09 20:39:37;;;;;;;5.32;3.60;;;;;;;;;;8488783;27;20142;-82
2022/08/09 20:43:41;;;;;;;5.38;3.38;;;;;;;;;;8494680;27;20058;-82
2022/08/09 20:47:44;;;;;;;4.68;3.40;;;;;;;;;;8498852;27;20486;-82
2022/08/09 20:51:48;;;;;;;5.07;3.40;;;;;;;;;;8483882;27;20131;-82
2022/08/09 20:55:53;;;;;;;7.07;3.30;;;;;;;;;;8482642;27;20039;-82
2022/08/09 20:59:57;;;;;;;4.63;2.92;;;;;;;;;;8491724;27;20130;-82
2022/08/09 21:04:01;;;;;;;8.90;3.80;;;;;;;;;;8491523;27;20048;-82
2022/08/09 21:08:42;;;;;;;5.85;3.55;;;;;;;;;;8476826;27;20478;-82
2022/08/09 21:12:48;;;;;;;4.88;3.40;;;;;;;;;;8469982;27;20478;-82
2022/08/09 21:16:53;;;;;;;5.75;3.72;;;;;;;;;;8491166;27;20039;-83
2022/08/09 21:20:58;;;;;;;5.97;3.83;;;;;;;;;;8490646;27;20511;-82
2022/08/09 21:29:23;;;;;;;4.72;3.10;;;;;;;;;;8481682;27;20040;-82
2022/08/09 21:33:26;;;;;;;6.30;3.30;;;;;;;;;;8473719;27;20037;-82
2022/08/09 21:37:30;;;;;;;5.30;3.70;;;;;;;;;;8470828;27;20047;-82
2022/08/09 21:41:35;;;;;;;7.20;3.78;;;;;;;;;;8480305;27;20047;-82
2022/08/09 21:45:40;;;;;;;7.22;4.20;;;;;;;;;;8465767;27;20402;-82
2022/08/09 21:49:43;;;;;;;6.57;4.10;;;;;;;;;;8476669;27;20043;-81
2022/08/09 21:53:47;;;;;;;5.70;3.53;;;;;;;;;;8475799;27;20035;-81
2022/08/09 21:57:51;;;;;;;6.18;3.55;;;;;;;;;;8477225;27;20048;-82
2022/08/09 22:01:56;;;;;;;4.88;3.65;;;;;;;;;;8472722;27;20507;-81
2022/08/09 22:05:59;;;;;;;6.53;3.20;;;;;;;;;;8468453;27;20047;-83
2022/08/09 22:10:03;;;;;;;5.28;3.67;;;;;;;;;;8471552;27;20126;-83
2022/08/09 22:14:06;;;;;;;5.32;3.40;;;;;;;;;;8479612;27;20063;-82
2022/08/09 22:18:11;;;;;;;5.90;3.67;;;;;;;;;;8481137;27;20074;-81
2022/08/09 22:22:14;;;;;;;6.18;3.55;;;;;;;;;;8483595;27;20039;-82
2022/08/09 22:26:17;;;;;;;6.45;3.60;;;;;;;;;;8466384;27;20397;-83
2022/08/09 22:30:20;;;;;;;5.15;3.67;;;;;;;;;;8473758;27;20036;-83
2022/08/09 22:34:25;;;;;;;6.38;3.70;;;;;;;;;;8483970;27;20081;-84
2022/08/09 22:38:28;;;;;;;5.95;3.90;;;;;;;;;;8470046;27;20067;-84
2022/08/09 22:42:31;;;;;;;6.07;4.10;;;;;;;;;;8477825;27;20055;-82
2022/08/09 22:46:34;;;;;;;5.10;3.45;;;;;;;;;;8480947;27;20043;-82
2022/08/09 22:50:39;;;;;;;6.07;3.83;;;;;;;;;;8469499;27;20438;-83
2022/08/09 22:54:42;;;;;;;6.28;3.20;;;;;;;;;;8476274;27;20050;-82
2022/08/09 22:58:48;;;;;;;6.88;4.00;;;;;;;;;;8475905;27;20483;-82
2022/08/09 23:02:51;;;;;;;5.00;3.30;;;;;;;;;;8484129;27;20052;-84
2022/08/09 23:11:21;;;;;;;7.27;3.10;;;;;;;;;;8465486;28;20436;-86
2022/08/09 23:15:25;;;;;;;6.68;3.90;;;;;;;;;;8489496;28;20096;-84
2022/08/09 23:19:27;;;;;;;5.95;3.70;;;;;;;;;;8474647;27;20040;-84
2022/08/09 23:23:32;;;;;;;6.40;3.55;;;;;;;;;;8473849;28;20058;-84
2022/08/09 23:27:34;;;;;;;4.65;3.25;;;;;;;;;;8482267;28;20130;-87
2022/08/09 23:31:37;;;;;;;5.07;3.83;;;;;;;;;;8466151;28;20481;-85
2022/08/09 23:35:40;;;;;;;5.97;3.70;;;;;;;;;;8475356;28;20043;-85
2022/08/09 23:39:44;;;;;;;6.18;3.85;;;;;;;;;;8469708;28;20043;-84
2022/08/09 23:43:47;;;;;;;7.45;3.22;;;;;;;;;;8469525;28;20078;-87
2022/08/09 23:47:50;;;;;;;5.18;3.22;;;;;;;;;;8459170;28;20048;-85
2022/08/09 23:51:52;;;;;;;5.07;2.92;;;;;;;;;;8470723;28;20046;-85
2022/08/09 23:55:57;;;;;;;4.43;3.33;;;;;;;;;;8477674;28;20039;-84
